createdAt,value
2022-12-12T00:02:27.165Z,4.32
2022-12-12T00:05:01.455Z,4.34
2022-12-12T00:07:30.896Z,4.31
2022-12-12T00:10:00.679Z,4.30
2022-12-12T00:12:30.211Z,4.31
2022-12-12T00:14:59.654Z,4.31
2022-12-12T00:17:29.139Z,4.32
2022-12-12T00:20:01.192Z,4.30
2022-12-12T00:22:30.677Z,4.32
2022-12-12T00:25:00.145Z,4.34
2022-12-12T00:27:29.658Z,4.37
2022-12-12T00:29:59.145Z,4.38
2022-12-12T00:32:28.735Z,4.38
2022-12-12T00:35:00.779Z,4.37
2022-12-12T00:37:30.288Z,4.34
2022-12-12T00:39:59.753Z,4.30
2022-12-12T00:42:29.212Z,4.33
2022-12-12T00:44:58.787Z,4.35
2022-12-12T00:47:28.301Z,3.85
2022-12-12T00:49:57.792Z,3.07
2022-12-12T00:52:29.830Z,2.71
2022-12-12T00:55:20.123Z,2.54
2022-12-12T00:57:49.595Z,2.45
2022-12-12T01:00:20.064Z,2.46
2022-12-12T01:02:49.728Z,2.75
2022-12-12T01:05:19.363Z,2.59
2022-12-12T01:07:51.490Z,2.48
2022-12-12T01:10:21.032Z,3.09
2022-12-12T01:12:50.839Z,3.47
2022-12-12T01:15:20.524Z,3.68
2022-12-12T01:17:50.001Z,3.82
2022-12-12T01:20:21.099Z,3.94
2022-12-12T01:22:52.961Z,4.06
2022-12-12T01:25:22.752Z,4.04
2022-12-12T01:27:52.281Z,4.08
2022-12-12T01:30:23.166Z,4.01
2022-12-12T01:32:52.896Z,4.02
2022-12-12T01:35:22.370Z,4.12
2022-12-12T01:37:54.920Z,4.15
2022-12-12T01:40:26.213Z,4.14
2022-12-12T01:42:55.786Z,4.17
2022-12-12T01:45:55.330Z,4.20
2022-12-12T01:48:25.793Z,4.23
2022-12-12T01:50:55.237Z,4.22
2022-12-12T01:53:27.432Z,4.21
2022-12-12T01:55:57.010Z,4.23
2022-12-12T01:58:26.517Z,4.22
2022-12-12T02:00:56.059Z,4.25
2022-12-12T02:03:25.602Z,4.09
2022-12-12T02:05:56.373Z,4.10
2022-12-12T02:08:28.527Z,4.10
2022-12-12T02:10:58.045Z,4.01
2022-12-12T02:13:28.913Z,4.16
2022-12-12T02:16:02.864Z,4.26
2022-12-12T02:18:34.382Z,4.32
2022-12-12T02:21:08.497Z,4.31
2022-12-12T02:24:07.964Z,4.34
2022-12-12T02:27:05.424Z,4.33
2022-12-12T02:30:14.150Z,4.28
2022-12-12T02:33:01.607Z,3.97
2022-12-12T02:35:35.456Z,3.89
2022-12-12T02:38:09.232Z,4.07
2022-12-12T02:40:41.373Z,4.17
2022-12-12T02:43:14.139Z,4.20
2022-12-12T02:45:45.106Z,4.24
2022-12-12T02:48:19.661Z,4.25
2022-12-12T02:50:50.279Z,4.22
2022-12-12T02:53:20.716Z,4.21
2022-12-12T02:55:50.286Z,4.22
2022-12-12T02:58:19.846Z,4.20
2022-12-12T03:00:53.372Z,4.20
2022-12-12T03:03:44.733Z,4.22
2022-12-12T03:06:39.358Z,4.19
2022-12-12T03:09:13.797Z,4.18
2022-12-12T03:11:48.440Z,4.17
2022-12-12T03:14:20.295Z,4.20
2022-12-12T03:16:51.629Z,4.24
2022-12-12T03:19:26.244Z,4.29
2022-12-12T03:21:56.918Z,4.28
2022-12-12T03:24:27.815Z,4.24
2022-12-12T03:26:59.069Z,4.24
2022-12-12T03:29:30.101Z,4.02
2022-12-12T03:32:01.183Z,4.01
2022-12-12T03:34:34.280Z,4.05
2022-12-12T03:37:06.154Z,4.09
2022-12-12T03:39:37.013Z,4.16
2022-12-12T03:42:08.800Z,4.17
2022-12-12T03:44:41.618Z,4.11
2022-12-12T03:47:13.409Z,4.14
2022-12-12T03:49:47.181Z,4.17
2022-12-12T03:52:19.218Z,4.17
2022-12-12T03:54:50.149Z,4.16
2022-12-12T03:57:21.686Z,4.12
2022-12-12T03:59:53.386Z,4.13
2022-12-12T04:02:24.724Z,4.12
2022-12-12T04:04:59.237Z,4.12
2022-12-12T04:07:31.826Z,4.17
2022-12-12T04:10:13.783Z,4.12
2022-12-12T04:12:57.151Z,4.15
2022-12-12T04:15:47.288Z,4.08
2022-12-12T04:18:19.502Z,4.15
2022-12-12T04:21:07.796Z,4.13
2022-12-12T04:23:38.859Z,4.13
2022-12-12T04:26:22.701Z,4.16
2022-12-12T04:28:57.115Z,4.11
2022-12-12T04:31:28.000Z,4.09
2022-12-12T04:33:59.598Z,4.04
2022-12-12T04:36:31.998Z,4.04
2022-12-12T04:39:01.489Z,4.01
2022-12-12T04:41:30.989Z,4.04
2022-12-12T04:44:00.486Z,4.03
2022-12-12T04:46:30.622Z,4.02
2022-12-12T04:49:01.714Z,4.03
2022-12-12T04:51:34.141Z,4.08
2022-12-12T04:54:06.110Z,4.06
2022-12-12T04:56:35.677Z,4.06
2022-12-12T04:59:05.268Z,4.07
2022-12-12T05:01:37.834Z,4.04
2022-12-12T05:04:10.547Z,3.99
2022-12-12T05:06:45.697Z,4.02
2022-12-12T05:09:15.229Z,3.99
2022-12-12T05:11:44.888Z,4.03
2022-12-12T05:14:15.481Z,4.07
2022-12-12T05:16:46.622Z,4.00
2022-12-12T05:19:16.156Z,3.97
2022-12-12T05:21:49.196Z,4.03
2022-12-12T05:24:18.683Z,4.06
2022-12-12T05:26:48.245Z,4.06
2022-12-12T05:29:17.753Z,4.07
2022-12-12T05:31:47.261Z,4.04
2022-12-12T05:34:16.807Z,4.02
2022-12-12T05:36:48.945Z,4.09
2022-12-12T05:39:18.698Z,4.14
2022-12-12T05:41:48.227Z,4.13
2022-12-12T05:44:17.718Z,4.09
2022-12-12T05:46:47.233Z,4.12
2022-12-12T05:49:16.715Z,4.11
2022-12-12T05:51:48.849Z,4.13
2022-12-12T05:54:18.379Z,4.15
2022-12-12T05:56:47.872Z,4.16
2022-12-12T05:59:17.353Z,4.18
2022-12-12T06:01:46.871Z,4.07
2022-12-12T06:04:16.389Z,3.93
2022-12-12T06:06:48.579Z,3.98
2022-12-12T06:09:18.134Z,4.01
2022-12-12T06:11:47.619Z,3.86
2022-12-12T06:14:17.140Z,3.91
2022-12-12T06:16:46.631Z,4.01
2022-12-12T06:19:16.161Z,4.00
2022-12-12T06:21:48.477Z,4.00
2022-12-12T06:24:17.931Z,4.07
2022-12-12T06:26:47.383Z,4.11
2022-12-12T06:29:17.243Z,4.09
2022-12-12T06:31:46.781Z,4.11
2022-12-12T06:34:16.233Z,4.07
2022-12-12T06:36:48.621Z,4.02
2022-12-12T06:39:18.073Z,4.02
2022-12-12T06:41:47.598Z,4.01
2022-12-12T06:44:17.097Z,4.00
2022-12-12T06:46:46.635Z,3.97
2022-12-12T06:49:16.207Z,3.85
2022-12-12T06:51:48.893Z,3.93
2022-12-12T06:54:19.406Z,3.94
2022-12-12T06:56:49.506Z,3.86
2022-12-12T06:59:19.104Z,3.86
2022-12-12T07:01:48.643Z,3.73
2022-12-12T07:04:18.202Z,3.68
2022-12-12T07:06:50.251Z,3.61
2022-12-12T07:09:20.550Z,3.58
2022-12-12T07:11:50.060Z,3.51
2022-12-12T07:14:19.574Z,3.58
2022-12-12T07:16:49.023Z,3.72
2022-12-12T07:19:18.522Z,3.86
2022-12-12T07:21:50.640Z,3.95
2022-12-12T07:24:20.134Z,4.00
2022-12-12T07:26:49.668Z,3.86
2022-12-12T07:29:19.138Z,3.86
2022-12-12T07:31:48.578Z,3.81
2022-12-12T07:34:18.093Z,3.75
2022-12-12T07:36:50.190Z,3.73
2022-12-12T07:39:21.207Z,3.68
2022-12-12T07:41:50.530Z,3.93
2022-12-12T07:44:19.996Z,3.81
2022-12-12T07:46:49.475Z,3.89
2022-12-12T07:49:19.011Z,3.94
2022-12-12T07:51:51.082Z,3.94
2022-12-12T07:54:20.670Z,3.94
2022-12-12T07:56:50.154Z,4.05
2022-12-12T07:59:19.772Z,4.09
2022-12-12T08:01:49.276Z,4.10
2022-12-12T08:04:19.087Z,4.14
2022-12-12T08:06:55.767Z,4.16
2022-12-12T08:09:29.199Z,4.20
2022-12-12T08:12:01.581Z,4.19
2022-12-12T08:14:31.095Z,4.18
2022-12-12T08:17:00.603Z,4.10
2022-12-12T08:19:30.103Z,3.86
2022-12-12T08:22:02.425Z,3.70
2022-12-12T08:24:31.907Z,3.80
2022-12-12T08:27:01.368Z,3.84
2022-12-12T08:29:30.851Z,3.93
2022-12-12T08:32:00.369Z,4.05
2022-12-12T08:34:29.858Z,3.47
2022-12-12T08:37:01.920Z,3.09
2022-12-12T08:39:31.444Z,3.16
2022-12-12T08:42:01.393Z,3.58
2022-12-12T08:44:30.919Z,3.82
2022-12-12T08:47:00.550Z,4.14
2022-12-12T08:49:30.043Z,4.16
2022-12-12T08:52:05.959Z,3.82
2022-12-12T08:54:35.645Z,4.00
2022-12-12T08:57:05.307Z,4.16
2022-12-12T08:59:34.952Z,4.00
2022-12-12T09:02:04.598Z,4.11
2022-12-12T09:04:34.165Z,4.10
2022-12-12T09:07:08.628Z,3.82
2022-12-12T09:09:38.413Z,3.53
2022-12-12T09:12:08.527Z,3.74
2022-12-12T09:14:38.140Z,4.08
2022-12-12T09:17:07.617Z,4.36
2022-12-12T09:19:37.341Z,4.58
2022-12-12T09:22:09.459Z,4.65
2022-12-12T09:24:38.931Z,4.70
2022-12-12T09:27:08.770Z,4.71
2022-12-12T09:29:38.314Z,4.80
2022-12-12T09:32:08.032Z,4.86
2022-12-12T09:34:37.549Z,4.96
2022-12-12T09:37:09.605Z,5.03
2022-12-12T09:39:39.040Z,4.47
2022-12-12T09:42:13.494Z,4.51
2022-12-12T09:44:43.140Z,4.77
2022-12-12T09:47:15.602Z,4.98
2022-12-12T09:49:48.369Z,4.95
2022-12-12T09:52:25.171Z,4.49
2022-12-12T09:54:57.195Z,4.49
2022-12-12T09:57:28.929Z,4.56
2022-12-12T10:00:00.177Z,4.27
2022-12-12T10:02:43.448Z,3.98
2022-12-12T10:05:21.642Z,4.22
2022-12-12T10:07:57.146Z,4.09
2022-12-12T10:10:28.436Z,4.02
2022-12-12T10:12:58.304Z,3.96
2022-12-12T10:15:32.307Z,4.11
2022-12-12T10:18:02.596Z,4.54
2022-12-12T10:20:33.184Z,4.82
2022-12-12T10:23:08.268Z,4.75
2022-12-12T10:25:42.633Z,4.69
2022-12-12T10:28:13.621Z,4.94
2022-12-12T10:30:59.960Z,5.15
2022-12-12T10:33:33.941Z,5.29
2022-12-12T10:36:07.296Z,5.20
2022-12-12T10:38:51.386Z,5.36
2022-12-12T10:41:23.495Z,5.06
2022-12-12T10:43:58.187Z,5.05
2022-12-12T10:46:28.654Z,5.00
2022-12-12T10:48:58.222Z,5.05
2022-12-12T10:51:27.826Z,5.28
2022-12-12T10:53:59.862Z,4.53
2022-12-12T10:56:30.062Z,4.23
2022-12-12T10:59:00.187Z,3.78
2022-12-12T11:02:00.429Z,4.31
2022-12-12T11:04:27.322Z,4.89
2022-12-12T11:06:57.998Z,4.75
2022-12-12T11:09:30.757Z,4.55
2022-12-12T11:12:00.843Z,4.51
2022-12-12T11:14:35.733Z,4.50
2022-12-12T11:17:05.297Z,4.87
2022-12-12T11:19:39.863Z,5.24
2022-12-12T11:22:09.355Z,5.10
2022-12-12T11:24:41.360Z,4.81
2022-12-12T11:27:10.803Z,4.84
2022-12-12T11:29:46.264Z,4.79
2022-12-12T11:32:16.359Z,4.70
2022-12-12T11:34:47.436Z,4.91
2022-12-12T11:37:17.512Z,5.22
2022-12-12T11:39:51.937Z,4.80
2022-12-12T11:42:25.586Z,4.77
2022-12-12T11:45:03.365Z,4.84
2022-12-12T11:47:38.581Z,4.99
2022-12-12T11:50:19.802Z,5.08
2022-12-12T11:52:49.038Z,4.67
2022-12-12T11:55:21.254Z,4.89
2022-12-12T11:58:03.278Z,5.32
2022-12-12T12:00:34.313Z,5.68
2022-12-12T12:03:18.661Z,5.36
2022-12-12T12:05:50.063Z,5.40
2022-12-12T12:08:22.619Z,5.57
2022-12-12T12:10:58.154Z,5.75
2022-12-12T12:13:32.690Z,5.99
2022-12-12T12:16:03.421Z,6.17
2022-12-12T12:18:38.587Z,5.86
2022-12-12T12:21:13.729Z,4.98
2022-12-12T12:23:50.084Z,4.46
2022-12-12T12:26:25.142Z,4.13
2022-12-12T12:29:04.995Z,4.63
2022-12-12T12:31:35.300Z,5.30
2022-12-12T12:34:07.468Z,5.40
2022-12-12T12:36:38.315Z,5.60
2022-12-12T12:39:10.734Z,5.13
2022-12-12T12:41:46.134Z,5.22
2022-12-12T12:44:27.263Z,5.58
2022-12-12T12:46:59.066Z,5.31
2022-12-12T12:49:29.159Z,5.26
2022-12-12T12:51:59.359Z,5.07
2022-12-12T12:54:29.976Z,5.14
2022-12-12T12:57:02.727Z,5.38
2022-12-12T12:59:32.822Z,4.91
2022-12-12T13:02:02.651Z,4.50
2022-12-12T13:04:32.052Z,3.86
2022-12-12T13:07:01.693Z,3.86
2022-12-12T13:09:32.827Z,4.04
2022-12-12T13:12:06.160Z,4.65
2022-12-12T13:14:42.932Z,4.76
2022-12-12T13:17:15.305Z,4.23
2022-12-12T13:19:45.327Z,3.97
2022-12-12T13:22:16.681Z,3.95
2022-12-12T13:24:47.308Z,4.10
2022-12-12T13:27:21.403Z,4.04
2022-12-12T13:29:51.045Z,4.10
2022-12-12T13:32:28.002Z,4.54
2022-12-12T13:34:57.845Z,5.12
2022-12-12T13:37:27.084Z,4.90
2022-12-12T13:40:00.495Z,3.67
2022-12-12T13:42:32.305Z,3.37
2022-12-12T13:45:01.624Z,3.47
2022-12-12T13:47:45.942Z,3.30
2022-12-12T13:50:22.614Z,3.62
2022-12-12T13:53:06.675Z,3.99
2022-12-12T13:55:35.899Z,3.71
2022-12-12T13:58:20.192Z,3.78
2022-12-12T14:00:52.312Z,3.88
2022-12-12T14:03:29.983Z,4.21
2022-12-12T14:06:09.603Z,4.41
2022-12-12T14:08:39.488Z,3.46
2022-12-12T14:11:11.925Z,2.84
2022-12-12T14:13:45.380Z,2.82
2022-12-12T14:16:24.374Z,2.91
2022-12-12T14:19:01.955Z,3.45
2022-12-12T14:21:41.257Z,3.54
2022-12-12T14:24:25.642Z,2.89
2022-12-12T14:26:54.848Z,2.51
2022-12-12T14:29:25.564Z,2.67
2022-12-12T14:32:00.195Z,2.57
2022-12-12T14:34:30.043Z,2.70
2022-12-12T14:37:14.320Z,2.89
2022-12-12T14:39:49.009Z,3.19
2022-12-12T14:42:21.191Z,3.02
2022-12-12T14:44:51.090Z,2.94
2022-12-12T14:47:23.000Z,3.15
2022-12-12T14:49:52.308Z,3.36
2022-12-12T14:52:22.484Z,3.50
2022-12-12T14:54:51.687Z,3.90
2022-12-12T14:57:21.755Z,4.06
2022-12-12T14:59:51.058Z,3.98
2022-12-12T15:02:24.566Z,3.78
2022-12-12T15:04:55.956Z,4.09
2022-12-12T15:07:27.717Z,4.33
2022-12-12T15:09:56.976Z,4.46
2022-12-12T15:12:26.950Z,4.47
2022-12-12T15:14:57.275Z,4.47
2022-12-12T15:17:29.988Z,4.53
2022-12-12T15:19:59.903Z,4.55
2022-12-12T15:22:29.666Z,4.57
2022-12-12T15:24:59.291Z,4.59
2022-12-12T15:27:30.058Z,4.58
2022-12-12T15:29:59.353Z,4.54
2022-12-12T15:32:31.242Z,4.47
2022-12-12T15:35:04.883Z,4.46
2022-12-12T15:37:34.368Z,4.44
2022-12-12T15:40:27.376Z,4.44
2022-12-12T15:42:57.247Z,4.43
2022-12-12T15:45:27.615Z,4.37
2022-12-12T15:47:59.601Z,4.30
2022-12-12T15:50:29.961Z,4.23
2022-12-12T15:53:03.006Z,4.21
2022-12-12T15:55:32.183Z,4.21
2022-12-12T15:58:01.473Z,4.23
2022-12-12T16:00:35.169Z,4.19
2022-12-12T16:03:08.019Z,4.14
2022-12-12T16:05:38.207Z,4.02
2022-12-12T16:08:24.133Z,3.96
2022-12-12T16:10:58.111Z,3.93
2022-12-12T16:13:27.744Z,3.94
2022-12-12T16:15:56.974Z,3.88
2022-12-12T16:18:28.888Z,3.80
2022-12-12T16:20:58.331Z,3.77
2022-12-12T16:23:30.035Z,3.75
2022-12-12T16:25:59.308Z,3.76
2022-12-12T16:28:28.777Z,3.73
2022-12-12T16:30:58.446Z,3.66
2022-12-12T16:33:31.618Z,3.67
2022-12-12T16:36:01.342Z,3.75
2022-12-12T16:38:30.985Z,3.80
2022-12-12T16:41:01.019Z,3.86
2022-12-12T16:43:30.226Z,3.88
2022-12-12T16:45:59.559Z,3.92
2022-12-12T16:48:35.461Z,3.98
2022-12-12T16:51:05.349Z,3.96
2022-12-12T16:53:34.620Z,3.93
2022-12-12T16:56:03.806Z,3.95
2022-12-12T16:58:33.038Z,3.95
2022-12-12T17:01:02.860Z,3.94
2022-12-12T17:03:35.158Z,3.92
2022-12-12T17:06:04.443Z,3.90
2022-12-12T17:08:33.824Z,3.91
2022-12-12T17:11:09.939Z,3.87
2022-12-12T17:13:39.951Z,3.88
2022-12-12T17:16:09.377Z,3.89
2022-12-12T17:18:41.485Z,3.84
2022-12-12T17:21:10.699Z,3.83
2022-12-12T17:23:39.897Z,3.84
2022-12-12T17:26:09.126Z,3.85
2022-12-12T17:28:38.545Z,3.85
2022-12-12T17:31:09.854Z,3.80
2022-12-12T17:33:49.917Z,3.71
2022-12-12T17:36:19.777Z,3.64
2022-12-12T17:38:49.599Z,3.53
2022-12-12T17:41:18.798Z,3.44
2022-12-12T17:43:53.634Z,3.41
2022-12-12T17:46:25.113Z,3.44
2022-12-12T17:48:56.925Z,3.46
2022-12-12T17:51:26.425Z,3.53
2022-12-12T17:53:55.649Z,3.62
2022-12-12T17:56:25.531Z,3.75
2022-12-12T17:58:54.769Z,3.80
2022-12-12T18:01:24.581Z,3.84
2022-12-12T18:03:53.864Z,3.84
2022-12-12T18:06:25.820Z,3.86
2022-12-12T18:08:55.059Z,3.85
2022-12-12T18:11:26.800Z,3.90
2022-12-12T18:13:57.826Z,3.90
2022-12-12T18:16:27.314Z,3.89
2022-12-12T18:18:56.568Z,3.86
2022-12-12T18:21:59.179Z,3.85
2022-12-12T18:24:19.223Z,3.84
2022-12-12T18:26:48.423Z,3.84
2022-12-12T18:29:17.607Z,3.79
2022-12-12T18:31:46.942Z,3.75
2022-12-12T18:34:16.306Z,3.68
2022-12-12T18:36:49.354Z,3.66
2022-12-12T18:39:18.683Z,3.60
2022-12-12T18:41:47.887Z,3.58
2022-12-12T18:44:17.316Z,3.53
2022-12-12T18:46:46.522Z,3.53
2022-12-12T18:49:18.268Z,3.59
2022-12-12T18:51:50.064Z,3.61
2022-12-12T18:54:19.313Z,3.67
2022-12-12T18:56:48.589Z,3.70
2022-12-12T18:59:18.116Z,3.65
2022-12-12T19:01:48.147Z,3.54
2022-12-12T19:04:22.944Z,3.42
2022-12-12T19:06:55.254Z,3.38
2022-12-12T19:09:24.449Z,3.32
2022-12-12T19:12:01.672Z,3.28
2022-12-12T19:17:25.633Z,3.22
2022-12-12T19:19:55.432Z,3.15
2022-12-12T19:25:16.571Z,3.23
2022-12-12T19:27:45.768Z,3.21
2022-12-12T19:30:15.949Z,2.99
2022-12-12T19:32:48.949Z,3.07
2022-12-12T19:35:18.677Z,3.34
2022-12-12T19:37:50.457Z,3.54
2022-12-12T19:40:19.739Z,3.57
2022-12-12T19:42:49.110Z,3.39
2022-12-12T19:45:18.488Z,3.52
2022-12-12T19:47:47.700Z,3.61
2022-12-12T19:50:17.207Z,3.55
2022-12-12T19:52:46.761Z,3.45
2022-12-12T19:55:18.591Z,3.40
2022-12-12T19:57:47.807Z,3.46
2022-12-12T20:00:19.886Z,3.29
2022-12-12T20:02:49.112Z,3.49
2022-12-12T20:05:18.360Z,3.73
2022-12-12T20:07:47.636Z,3.80
2022-12-12T20:10:19.577Z,3.83
2022-12-12T20:12:56.337Z,3.84
2022-12-12T20:15:27.796Z,3.80
2022-12-12T20:18:00.198Z,3.76
2022-12-12T20:20:29.511Z,3.73
2022-12-12T20:22:58.971Z,3.63
2022-12-12T20:25:30.775Z,3.53
2022-12-12T20:28:00.027Z,3.42
2022-12-12T20:30:30.200Z,3.00
2022-12-12T20:32:59.688Z,3.06
2022-12-12T20:35:29.165Z,2.88
2022-12-12T20:37:58.384Z,2.80
2022-12-12T20:40:27.553Z,2.91
2022-12-12T20:43:03.352Z,3.07
2022-12-12T20:45:32.973Z,2.80
2022-12-12T20:48:07.384Z,2.70
2022-12-12T20:50:37.025Z,2.50
2022-12-12T20:53:06.256Z,2.27
2022-12-12T20:55:37.048Z,2.18
2022-12-12T20:58:08.869Z,1.79
2022-12-12T21:00:38.278Z,1.76
2022-12-12T21:03:07.537Z,1.91
2022-12-12T21:05:36.826Z,1.87
2022-12-12T21:08:06.272Z,1.79
2022-12-12T21:10:35.986Z,1.68
2022-12-12T21:13:05.235Z,1.59
2022-12-12T21:15:37.093Z,1.70
2022-12-12T21:18:06.613Z,1.90
2022-12-12T21:20:35.827Z,1.99
2022-12-12T21:23:05.039Z,2.16
2022-12-12T21:25:34.238Z,2.20
2022-12-12T21:28:03.524Z,1.98
2022-12-12T21:30:32.695Z,2.08
2022-12-12T21:33:04.686Z,2.09
2022-12-12T21:35:33.894Z,2.06
2022-12-12T21:38:03.361Z,2.02
2022-12-12T21:42:33.645Z,1.90
2022-12-12T21:45:03.075Z,1.80
2022-12-12T21:47:32.507Z,1.74
2022-12-12T21:50:01.914Z,1.72
2022-12-12T21:52:31.393Z,1.70
2022-12-12T21:55:00.831Z,1.65
2022-12-12T21:57:33.004Z,1.60
2022-12-12T22:00:02.445Z,1.57
2022-12-12T22:02:31.998Z,1.54
2022-12-12T22:05:01.558Z,1.54
2022-12-12T22:07:31.044Z,1.57
2022-12-12T22:10:11.255Z,1.55
2022-12-12T22:12:43.678Z,1.58
2022-12-12T22:15:27.319Z,1.59
2022-12-12T22:17:56.770Z,1.59
2022-12-12T22:20:26.208Z,1.63
2022-12-12T22:22:56.139Z,1.70
2022-12-12T22:25:25.673Z,1.73
2022-12-12T22:27:57.725Z,1.76
2022-12-12T22:30:27.190Z,1.72
2022-12-12T22:32:56.622Z,1.67
2022-12-12T22:35:26.683Z,1.57
2022-12-12T22:37:56.578Z,1.53
2022-12-12T22:40:26.072Z,1.50
2022-12-12T22:42:58.132Z,1.49
2022-12-12T22:45:27.646Z,1.41
2022-12-12T22:47:57.087Z,1.37
2022-12-12T22:50:26.562Z,1.32
2022-12-12T22:52:56.030Z,1.26
2022-12-12T22:55:26.259Z,1.24
2022-12-12T22:57:58.297Z,1.19
2022-12-12T23:00:27.754Z,1.17
2022-12-12T23:02:57.424Z,1.17
2022-12-12T23:05:26.925Z,1.19
2022-12-12T23:07:56.400Z,1.18
2022-12-12T23:10:25.991Z,1.23
2022-12-12T23:12:58.093Z,1.24
2022-12-12T23:15:27.553Z,1.27
2022-12-12T23:17:57.044Z,1.32
2022-12-12T23:20:26.525Z,1.35
2022-12-12T23:22:56.123Z,1.36
2022-12-12T23:25:25.639Z,1.34
2022-12-12T23:27:57.691Z,1.32
2022-12-12T23:30:27.156Z,1.33
2022-12-12T23:32:56.663Z,1.32
2022-12-12T23:35:26.249Z,1.20
2022-12-12T23:37:55.696Z,1.29
2022-12-12T23:40:25.173Z,1.32
2022-12-12T23:42:54.669Z,1.27
2022-12-12T23:45:26.809Z,1.23
2022-12-12T23:47:56.323Z,1.30
2022-12-12T23:50:25.781Z,1.32
2022-12-12T23:52:55.259Z,1.33
2022-12-12T23:55:24.710Z,1.37
2022-12-12T23:57:54.190Z,1.36
